sensor_id;sensor_type;location;lat;lon;timestamp;P1;durP1;ratioP1;P2;durP2;ratioP2
25609;SDS011;13479;49.044;8.716;2024-01-07T00:01:35;14.87;;;8.30;;
25609;SDS011;13479;49.044;8.716;2024-01-07T00:04:01;16.40;;;8.50;;
25609;SDS011;13479;49.044;8.716;2024-01-07T00:06:26;17.37;;;9.23;;
25609;SDS011;13479;49.044;8.716;2024-01-07T00:08:51;18.97;;;9.67;;
25609;SDS011;13479;49.044;8.716;2024-01-07T00:11:16;16.20;;;9.20;;
25609;SDS011;13479;49.044;8.716;2024-01-07T00:13:42;17.77;;;8.83;;
25609;SDS011;13479;49.044;8.716;2024-01-07T00:16:07;17.77;;;9.40;;
25609;SDS011;13479;49.044;8.716;2024-01-07T00:18:32;19.70;;;10.10;;
25609;SDS011;13479;49.044;8.716;2024-01-07T00:20:58;19.20;;;10.33;;
25609;SDS011;13479;49.044;8.716;2024-01-07T00:23:23;16.83;;;9.53;;
25609;SDS011;13479;49.044;8.716;2024-01-07T00:25:49;19.20;;;10.30;;
25609;SDS011;13479;49.044;8.716;2024-01-07T00:28:14;23.10;;;11.97;;
25609;SDS011;13479;49.044;8.716;2024-01-07T00:30:39;19.20;;;10.20;;
25609;SDS011;13479;49.044;8.716;2024-01-07T00:33:05;20.83;;;10.40;;
25609;SDS011;13479;49.044;8.716;2024-01-07T00:35:30;22.30;;;12.43;;
25609;SDS011;13479;49.044;8.716;2024-01-07T00:37:55;20.00;;;10.70;;
25609;SDS011;13479;49.044;8.716;2024-01-07T00:40:21;22.90;;;11.00;;
25609;SDS011;13479;49.044;8.716;2024-01-07T00:42:47;22.87;;;11.80;;
25609;SDS011;13479;49.044;8.716;2024-01-07T00:45:12;22.40;;;11.67;;
25609;SDS011;13479;49.044;8.716;2024-01-07T00:47:38;23.70;;;12.63;;
25609;SDS011;13479;49.044;8.716;2024-01-07T00:50:03;23.10;;;12.17;;
25609;SDS011;13479;49.044;8.716;2024-01-07T00:52:29;19.77;;;10.23;;
25609;SDS011;13479;49.044;8.716;2024-01-07T00:54:54;23.60;;;12.57;;
25609;SDS011;13479;49.044;8.716;2024-01-07T00:57:19;22.63;;;10.47;;
25609;SDS011;13479;49.044;8.716;2024-01-07T00:59:45;22.40;;;11.67;;
25609;SDS011;13479;49.044;8.716;2024-01-07T01:02:10;25.17;;;12.45;;
25609;SDS011;13479;49.044;8.716;2024-01-07T01:04:37;25.30;;;12.57;;
25609;SDS011;13479;49.044;8.716;2024-01-07T01:07:03;27.20;;;11.23;;
25609;SDS011;13479;49.044;8.716;2024-01-07T01:09:28;26.20;;;12.17;;
25609;SDS011;13479;49.044;8.716;2024-01-07T01:11:54;24.13;;;11.80;;
25609;SDS011;13479;49.044;8.716;2024-01-07T01:14:19;27.50;;;12.63;;
25609;SDS011;13479;49.044;8.716;2024-01-07T01:16:45;22.17;;;11.53;;
25609;SDS011;13479;49.044;8.716;2024-01-07T01:19:10;23.47;;;12.03;;
25609;SDS011;13479;49.044;8.716;2024-01-07T01:21:35;27.87;;;12.90;;
25609;SDS011;13479;49.044;8.716;2024-01-07T01:24:00;23.90;;;10.80;;
25609;SDS011;13479;49.044;8.716;2024-01-07T01:26:26;27.73;;;13.17;;
25609;SDS011;13479;49.044;8.716;2024-01-07T01:28:51;23.20;;;11.53;;
25609;SDS011;13479;49.044;8.716;2024-01-07T01:31:16;29.03;;;13.33;;
25609;SDS011;13479;49.044;8.716;2024-01-07T01:33:41;26.93;;;12.53;;
25609;SDS011;13479;49.044;8.716;2024-01-07T01:36:07;20.83;;;9.73;;
25609;SDS011;13479;49.044;8.716;2024-01-07T01:38:32;26.00;;;12.43;;
25609;SDS011;13479;49.044;8.716;2024-01-07T01:40:58;23.40;;;11.77;;
25609;SDS011;13479;49.044;8.716;2024-01-07T01:43:24;29.10;;;13.93;;
25609;SDS011;13479;49.044;8.716;2024-01-07T01:45:50;24.92;;;11.88;;
25609;SDS011;13479;49.044;8.716;2024-01-07T01:48:16;25.53;;;11.23;;
25609;SDS011;13479;49.044;8.716;2024-01-07T01:50:41;25.87;;;11.07;;
25609;SDS011;13479;49.044;8.716;2024-01-07T01:53:07;27.40;;;12.53;;
25609;SDS011;13479;49.044;8.716;2024-01-07T01:55:32;23.63;;;9.57;;
25609;SDS011;13479;49.044;8.716;2024-01-07T01:57:58;26.20;;;10.80;;
25609;SDS011;13479;49.044;8.716;2024-01-07T02:00:28;33.93;;;14.17;;
25609;SDS011;13479;49.044;8.716;2024-01-07T02:02:54;26.60;;;11.70;;
25609;SDS011;13479;49.044;8.716;2024-01-07T02:05:19;24.13;;;11.43;;
25609;SDS011;13479;49.044;8.716;2024-01-07T02:07:44;29.70;;;12.33;;
25609;SDS011;13479;49.044;8.716;2024-01-07T02:10:10;30.30;;;13.30;;
25609;SDS011;13479;49.044;8.716;2024-01-07T02:12:35;29.17;;;11.70;;
25609;SDS011;13479;49.044;8.716;2024-01-07T02:15:00;22.50;;;10.30;;
25609;SDS011;13479;49.044;8.716;2024-01-07T02:17:25;24.03;;;10.50;;
25609;SDS011;13479;49.044;8.716;2024-01-07T02:19:51;23.90;;;11.70;;
25609;SDS011;13479;49.044;8.716;2024-01-07T02:22:17;25.60;;;11.47;;
25609;SDS011;13479;49.044;8.716;2024-01-07T02:24:43;21.27;;;9.17;;
25609;SDS011;13479;49.044;8.716;2024-01-07T02:27:09;24.00;;;10.73;;
25609;SDS011;13479;49.044;8.716;2024-01-07T02:29:34;24.07;;;10.70;;
25609;SDS011;13479;49.044;8.716;2024-01-07T02:31:59;29.57;;;12.20;;
25609;SDS011;13479;49.044;8.716;2024-01-07T02:34:24;30.33;;;11.77;;
25609;SDS011;13479;49.044;8.716;2024-01-07T02:36:50;27.63;;;11.30;;
25609;SDS011;13479;49.044;8.716;2024-01-07T02:39:15;23.43;;;10.60;;
25609;SDS011;13479;49.044;8.716;2024-01-07T02:41:40;21.60;;;9.17;;
25609;SDS011;13479;49.044;8.716;2024-01-07T02:44:06;27.30;;;12.07;;
25609;SDS011;13479;49.044;8.716;2024-01-07T02:46:31;25.13;;;11.37;;
25609;SDS011;13479;49.044;8.716;2024-01-07T02:48:56;29.50;;;11.17;;
25609;SDS011;13479;49.044;8.716;2024-01-07T02:51:21;26.13;;;11.90;;
25609;SDS011;13479;49.044;8.716;2024-01-07T02:53:47;22.97;;;10.43;;
25609;SDS011;13479;49.044;8.716;2024-01-07T02:56:12;23.03;;;10.30;;
25609;SDS011;13479;49.044;8.716;2024-01-07T02:58:37;22.97;;;10.57;;
25609;SDS011;13479;49.044;8.716;2024-01-07T03:01:03;20.53;;;9.03;;
25609;SDS011;13479;49.044;8.716;2024-01-07T03:03:33;20.97;;;9.20;;
25609;SDS011;13479;49.044;8.716;2024-01-07T03:05:58;20.47;;;9.63;;
25609;SDS011;13479;49.044;8.716;2024-01-07T03:08:24;18.97;;;8.97;;
25609;SDS011;13479;49.044;8.716;2024-01-07T03:10:49;20.20;;;8.87;;
25609;SDS011;13479;49.044;8.716;2024-01-07T03:13:14;19.30;;;8.13;;
25609;SDS011;13479;49.044;8.716;2024-01-07T03:15:39;20.93;;;9.13;;
25609;SDS011;13479;49.044;8.716;2024-01-07T03:18:05;19.63;;;9.37;;
25609;SDS011;13479;49.044;8.716;2024-01-07T03:20:30;18.17;;;7.30;;
25609;SDS011;13479;49.044;8.716;2024-01-07T03:22:55;22.10;;;9.53;;
25609;SDS011;13479;49.044;8.716;2024-01-07T03:25:20;17.97;;;7.73;;
25609;SDS011;13479;49.044;8.716;2024-01-07T03:27:46;18.73;;;9.03;;
25609;SDS011;13479;49.044;8.716;2024-01-07T03:30:11;16.43;;;8.07;;
25609;SDS011;13479;49.044;8.716;2024-01-07T03:32:36;14.83;;;7.30;;
25609;SDS011;13479;49.044;8.716;2024-01-07T03:35:02;16.37;;;7.77;;
25609;SDS011;13479;49.044;8.716;2024-01-07T03:37:27;14.60;;;6.40;;
25609;SDS011;13479;49.044;8.716;2024-01-07T03:39:53;14.40;;;7.03;;
25609;SDS011;13479;49.044;8.716;2024-01-07T03:42:18;15.37;;;7.57;;
25609;SDS011;13479;49.044;8.716;2024-01-07T03:44:44;17.10;;;7.83;;
25609;SDS011;13479;49.044;8.716;2024-01-07T03:47:09;17.53;;;8.23;;
25609;SDS011;13479;49.044;8.716;2024-01-07T03:49:37;16.40;;;7.80;;
25609;SDS011;13479;49.044;8.716;2024-01-07T03:52:04;13.57;;;6.43;;
25609;SDS011;13479;49.044;8.716;2024-01-07T03:54:30;12.80;;;6.37;;
25609;SDS011;13479;49.044;8.716;2024-01-07T03:56:55;13.93;;;6.40;;
25609;SDS011;13479;49.044;8.716;2024-01-07T03:59:21;12.80;;;5.93;;
25609;SDS011;13479;49.044;8.716;2024-01-07T04:01:48;12.87;;;5.73;;
25609;SDS011;13479;49.044;8.716;2024-01-07T04:04:13;12.20;;;5.60;;
25609;SDS011;13479;49.044;8.716;2024-01-07T04:06:38;15.10;;;6.37;;
25609;SDS011;13479;49.044;8.716;2024-01-07T04:09:03;11.40;;;5.37;;
25609;SDS011;13479;49.044;8.716;2024-01-07T04:11:29;12.83;;;5.40;;
25609;SDS011;13479;49.044;8.716;2024-01-07T04:13:54;11.77;;;6.13;;
25609;SDS011;13479;49.044;8.716;2024-01-07T04:16:19;9.70;;;4.83;;
25609;SDS011;13479;49.044;8.716;2024-01-07T04:18:46;12.87;;;6.13;;
25609;SDS011;13479;49.044;8.716;2024-01-07T04:21:11;14.53;;;5.87;;
25609;SDS011;13479;49.044;8.716;2024-01-07T04:23:40;10.90;;;5.50;;
25609;SDS011;13479;49.044;8.716;2024-01-07T04:26:06;13.63;;;5.47;;
25609;SDS011;13479;49.044;8.716;2024-01-07T04:28:32;11.23;;;5.30;;
25609;SDS011;13479;49.044;8.716;2024-01-07T04:30:57;12.50;;;6.07;;
25609;SDS011;13479;49.044;8.716;2024-01-07T04:33:22;13.10;;;6.00;;
25609;SDS011;13479;49.044;8.716;2024-01-07T04:35:47;12.20;;;6.00;;
25609;SDS011;13479;49.044;8.716;2024-01-07T04:38:13;17.37;;;6.97;;
25609;SDS011;13479;49.044;8.716;2024-01-07T04:40:39;12.43;;;6.00;;
25609;SDS011;13479;49.044;8.716;2024-01-07T04:43:04;14.10;;;6.43;;
25609;SDS011;13479;49.044;8.716;2024-01-07T04:45:29;12.13;;;5.90;;
25609;SDS011;13479;49.044;8.716;2024-01-07T04:47:54;14.50;;;5.93;;
25609;SDS011;13479;49.044;8.716;2024-01-07T04:50:20;10.27;;;5.13;;
25609;SDS011;13479;49.044;8.716;2024-01-07T04:52:45;13.83;;;6.60;;
25609;SDS011;13479;49.044;8.716;2024-01-07T04:55:11;12.67;;;6.00;;
25609;SDS011;13479;49.044;8.716;2024-01-07T04:57:36;12.50;;;5.37;;
25609;SDS011;13479;49.044;8.716;2024-01-07T05:00:02;11.63;;;6.50;;
25609;SDS011;13479;49.044;8.716;2024-01-07T05:02:28;13.60;;;6.50;;
25609;SDS011;13479;49.044;8.716;2024-01-07T05:04:53;16.43;;;7.43;;
25609;SDS011;13479;49.044;8.716;2024-01-07T05:07:19;18.43;;;7.67;;
25609;SDS011;13479;49.044;8.716;2024-01-07T05:09:44;15.00;;;7.47;;
25609;SDS011;13479;49.044;8.716;2024-01-07T05:12:09;11.43;;;5.90;;
25609;SDS011;13479;49.044;8.716;2024-01-07T05:14:35;12.17;;;6.73;;
25609;SDS011;13479;49.044;8.716;2024-01-07T05:17:02;13.70;;;6.33;;
25609;SDS011;13479;49.044;8.716;2024-01-07T05:19:27;15.57;;;7.50;;
25609;SDS011;13479;49.044;8.716;2024-01-07T05:21:53;17.57;;;8.10;;
25609;SDS011;13479;49.044;8.716;2024-01-07T05:24:18;15.07;;;6.87;;
25609;SDS011;13479;49.044;8.716;2024-01-07T05:26:43;13.73;;;6.07;;
25609;SDS011;13479;49.044;8.716;2024-01-07T05:29:09;18.33;;;8.30;;
25609;SDS011;13479;49.044;8.716;2024-01-07T05:31:35;11.63;;;6.13;;
25609;SDS011;13479;49.044;8.716;2024-01-07T05:34:00;14.93;;;6.20;;
25609;SDS011;13479;49.044;8.716;2024-01-07T05:36:25;16.03;;;6.57;;
25609;SDS011;13479;49.044;8.716;2024-01-07T05:38:51;14.90;;;6.93;;
25609;SDS011;13479;49.044;8.716;2024-01-07T05:41:16;12.97;;;6.30;;
25609;SDS011;13479;49.044;8.716;2024-01-07T05:43:42;15.03;;;7.67;;
25609;SDS011;13479;49.044;8.716;2024-01-07T05:46:07;12.90;;;6.93;;
25609;SDS011;13479;49.044;8.716;2024-01-07T05:48:42;17.03;;;6.27;;
25609;SDS011;13479;49.044;8.716;2024-01-07T05:51:09;15.90;;;7.70;;
25609;SDS011;13479;49.044;8.716;2024-01-07T05:53:34;12.27;;;6.47;;
25609;SDS011;13479;49.044;8.716;2024-01-07T05:56:00;14.67;;;7.53;;
25609;SDS011;13479;49.044;8.716;2024-01-07T05:58:25;14.60;;;7.60;;
25609;SDS011;13479;49.044;8.716;2024-01-07T06:00:50;16.43;;;8.07;;
25609;SDS011;13479;49.044;8.716;2024-01-07T06:03:15;15.63;;;6.83;;
25609;SDS011;13479;49.044;8.716;2024-01-07T06:05:41;12.97;;;6.83;;
25609;SDS011;13479;49.044;8.716;2024-01-07T06:08:06;14.67;;;7.83;;
25609;SDS011;13479;49.044;8.716;2024-01-07T06:10:31;14.90;;;8.03;;
25609;SDS011;13479;49.044;8.716;2024-01-07T06:12:56;18.57;;;9.40;;
25609;SDS011;13479;49.044;8.716;2024-01-07T06:15:22;13.63;;;7.10;;
25609;SDS011;13479;49.044;8.716;2024-01-07T06:17:47;16.77;;;7.77;;
25609;SDS011;13479;49.044;8.716;2024-01-07T06:20:13;17.53;;;8.13;;
25609;SDS011;13479;49.044;8.716;2024-01-07T06:22:39;16.30;;;8.07;;
25609;SDS011;13479;49.044;8.716;2024-01-07T06:25:04;16.13;;;8.53;;
25609;SDS011;13479;49.044;8.716;2024-01-07T06:27:29;15.43;;;8.27;;
25609;SDS011;13479;49.044;8.716;2024-01-07T06:29:55;18.13;;;8.93;;
25609;SDS011;13479;49.044;8.716;2024-01-07T06:32:20;15.23;;;7.50;;
25609;SDS011;13479;49.044;8.716;2024-01-07T06:34:46;14.20;;;7.67;;
25609;SDS011;13479;49.044;8.716;2024-01-07T06:37:11;16.30;;;8.77;;
25609;SDS011;13479;49.044;8.716;2024-01-07T06:39:37;15.53;;;8.23;;
25609;SDS011;13479;49.044;8.716;2024-01-07T06:42:02;13.13;;;6.97;;
25609;SDS011;13479;49.044;8.716;2024-01-07T06:44:28;14.80;;;8.10;;
25609;SDS011;13479;49.044;8.716;2024-01-07T06:46:53;18.73;;;9.47;;
25609;SDS011;13479;49.044;8.716;2024-01-07T06:49:19;14.53;;;8.17;;
25609;SDS011;13479;49.044;8.716;2024-01-07T06:51:44;16.80;;;8.10;;
25609;SDS011;13479;49.044;8.716;2024-01-07T06:54:09;14.97;;;8.23;;
25609;SDS011;13479;49.044;8.716;2024-01-07T06:56:34;17.30;;;8.50;;
25609;SDS011;13479;49.044;8.716;2024-01-07T06:58:59;13.33;;;7.23;;
25609;SDS011;13479;49.044;8.716;2024-01-07T07:01:25;14.40;;;7.57;;
25609;SDS011;13479;49.044;8.716;2024-01-07T07:03:50;15.27;;;7.80;;
25609;SDS011;13479;49.044;8.716;2024-01-07T07:06:16;14.43;;;7.43;;
25609;SDS011;13479;49.044;8.716;2024-01-07T07:08:41;15.10;;;8.30;;
25609;SDS011;13479;49.044;8.716;2024-01-07T07:11:07;12.10;;;7.37;;
25609;SDS011;13479;49.044;8.716;2024-01-07T07:13:32;13.73;;;7.80;;
25609;SDS011;13479;49.044;8.716;2024-01-07T07:15:57;14.33;;;8.03;;
25609;SDS011;13479;49.044;8.716;2024-01-07T07:18:23;16.13;;;8.43;;
25609;SDS011;13479;49.044;8.716;2024-01-07T07:20:49;14.07;;;7.47;;
25609;SDS011;13479;49.044;8.716;2024-01-07T07:23:14;13.20;;;7.63;;
25609;SDS011;13479;49.044;8.716;2024-01-07T07:25:39;14.47;;;7.60;;
25609;SDS011;13479;49.044;8.716;2024-01-07T07:28:05;12.10;;;6.73;;
25609;SDS011;13479;49.044;8.716;2024-01-07T07:30:30;14.30;;;7.80;;
25609;SDS011;13479;49.044;8.716;2024-01-07T07:32:55;10.43;;;6.00;;
25609;SDS011;13479;49.044;8.716;2024-01-07T07:35:21;12.70;;;7.47;;
25609;SDS011;13479;49.044;8.716;2024-01-07T07:37:46;12.87;;;7.43;;
25609;SDS011;13479;49.044;8.716;2024-01-07T07:40:12;12.33;;;6.87;;
25609;SDS011;13479;49.044;8.716;2024-01-07T07:42:38;15.50;;;7.93;;
25609;SDS011;13479;49.044;8.716;2024-01-07T07:45:03;13.20;;;7.40;;
25609;SDS011;13479;49.044;8.716;2024-01-07T07:47:29;12.13;;;6.93;;
25609;SDS011;13479;49.044;8.716;2024-01-07T07:49:55;12.03;;;6.53;;
25609;SDS011;13479;49.044;8.716;2024-01-07T07:52:20;11.40;;;6.70;;
25609;SDS011;13479;49.044;8.716;2024-01-07T07:54:51;12.97;;;6.93;;
25609;SDS011;13479;49.044;8.716;2024-01-07T07:57:19;15.17;;;7.83;;
25609;SDS011;13479;49.044;8.716;2024-01-07T07:59:46;14.13;;;7.63;;
25609;SDS011;13479;49.044;8.716;2024-01-07T08:02:13;12.43;;;7.40;;
25609;SDS011;13479;49.044;8.716;2024-01-07T08:04:38;12.00;;;6.70;;
25609;SDS011;13479;49.044;8.716;2024-01-07T08:07:06;12.97;;;7.60;;
25609;SDS011;13479;49.044;8.716;2024-01-07T08:09:31;12.90;;;7.47;;
25609;SDS011;13479;49.044;8.716;2024-01-07T08:11:56;12.30;;;7.07;;
25609;SDS011;13479;49.044;8.716;2024-01-07T08:14:22;15.33;;;7.67;;
25609;SDS011;13479;49.044;8.716;2024-01-07T08:16:47;20.20;;;9.80;;
25609;SDS011;13479;49.044;8.716;2024-01-07T08:19:12;13.50;;;7.10;;
25609;SDS011;13479;49.044;8.716;2024-01-07T08:21:37;13.03;;;6.83;;
25609;SDS011;13479;49.044;8.716;2024-01-07T08:24:03;12.67;;;7.10;;
25609;SDS011;13479;49.044;8.716;2024-01-07T08:26:29;11.30;;;6.77;;
25609;SDS011;13479;49.044;8.716;2024-01-07T08:28:54;13.93;;;7.37;;
25609;SDS011;13479;49.044;8.716;2024-01-07T08:31:19;13.30;;;6.87;;
25609;SDS011;13479;49.044;8.716;2024-01-07T08:33:44;12.80;;;7.23;;
25609;SDS011;13479;49.044;8.716;2024-01-07T08:36:10;11.00;;;6.53;;
25609;SDS011;13479;49.044;8.716;2024-01-07T08:38:35;11.93;;;7.10;;
25609;SDS011;13479;49.044;8.716;2024-01-07T08:41:00;12.40;;;7.30;;
25609;SDS011;13479;49.044;8.716;2024-01-07T08:43:25;11.83;;;6.57;;
25609;SDS011;13479;49.044;8.716;2024-01-07T08:45:51;13.30;;;7.70;;
25609;SDS011;13479;49.044;8.716;2024-01-07T08:48:16;10.77;;;6.40;;
25609;SDS011;13479;49.044;8.716;2024-01-07T08:50:42;9.93;;;6.23;;
25609;SDS011;13479;49.044;8.716;2024-01-07T08:53:07;10.90;;;5.83;;
25609;SDS011;13479;49.044;8.716;2024-01-07T08:55:32;10.23;;;5.43;;
25609;SDS011;13479;49.044;8.716;2024-01-07T08:57:58;10.47;;;5.40;;
25609;SDS011;13479;49.044;8.716;2024-01-07T09:00:24;11.07;;;5.57;;
25609;SDS011;13479;49.044;8.716;2024-01-07T09:02:52;8.17;;;4.30;;
25609;SDS011;13479;49.044;8.716;2024-01-07T09:05:17;9.17;;;4.57;;
25609;SDS011;13479;49.044;8.716;2024-01-07T09:07:43;9.70;;;5.70;;
25609;SDS011;13479;49.044;8.716;2024-01-07T09:10:08;9.40;;;4.63;;
25609;SDS011;13479;49.044;8.716;2024-01-07T09:12:38;6.03;;;2.53;;
25609;SDS011;13479;49.044;8.716;2024-01-07T09:15:04;5.83;;;3.20;;
25609;SDS011;13479;49.044;8.716;2024-01-07T09:17:32;5.67;;;3.43;;
25609;SDS011;13479;49.044;8.716;2024-01-07T09:19:58;6.20;;;3.50;;
25609;SDS011;13479;49.044;8.716;2024-01-07T09:22:23;7.53;;;3.37;;
25609;SDS011;13479;49.044;8.716;2024-01-07T09:24:49;7.43;;;4.07;;
25609;SDS011;13479;49.044;8.716;2024-01-07T09:27:14;7.37;;;4.07;;
25609;SDS011;13479;49.044;8.716;2024-01-07T09:29:39;6.60;;;3.00;;
25609;SDS011;13479;49.044;8.716;2024-01-07T09:32:04;7.40;;;4.07;;
25609;SDS011;13479;49.044;8.716;2024-01-07T09:34:30;4.60;;;2.20;;
25609;SDS011;13479;49.044;8.716;2024-01-07T09:36:55;7.30;;;3.93;;
25609;SDS011;13479;49.044;8.716;2024-01-07T09:39:20;6.23;;;2.67;;
25609;SDS011;13479;49.044;8.716;2024-01-07T09:41:46;4.90;;;3.10;;
25609;SDS011;13479;49.044;8.716;2024-01-07T09:44:11;5.40;;;2.73;;
25609;SDS011;13479;49.044;8.716;2024-01-07T09:46:37;5.40;;;2.57;;
25609;SDS011;13479;49.044;8.716;2024-01-07T09:49:04;5.80;;;3.03;;
25609;SDS011;13479;49.044;8.716;2024-01-07T09:51:30;5.70;;;2.53;;
25609;SDS011;13479;49.044;8.716;2024-01-07T09:54:01;7.80;;;2.83;;
25609;SDS011;13479;49.044;8.716;2024-01-07T09:56:29;6.40;;;2.97;;
25609;SDS011;13479;49.044;8.716;2024-01-07T09:59:03;6.40;;;2.80;;
25609;SDS011;13479;49.044;8.716;2024-01-07T10:01:28;3.90;;;2.20;;
25609;SDS011;13479;49.044;8.716;2024-01-07T10:03:55;4.50;;;2.70;;
25609;SDS011;13479;49.044;8.716;2024-01-07T10:06:21;4.97;;;2.60;;
25609;SDS011;13479;49.044;8.716;2024-01-07T10:08:47;6.23;;;2.87;;
25609;SDS011;13479;49.044;8.716;2024-01-07T10:11:13;6.97;;;3.40;;
25609;SDS011;13479;49.044;8.716;2024-01-07T10:13:39;5.40;;;2.60;;
25609;SDS011;13479;49.044;8.716;2024-01-07T10:16:07;6.17;;;3.27;;
25609;SDS011;13479;49.044;8.716;2024-01-07T10:18:32;4.83;;;2.43;;
25609;SDS011;13479;49.044;8.716;2024-01-07T10:21:02;4.13;;;2.20;;
25609;SDS011;13479;49.044;8.716;2024-01-07T10:23:31;5.27;;;2.30;;
25609;SDS011;13479;49.044;8.716;2024-01-07T10:25:57;3.97;;;1.70;;
25609;SDS011;13479;49.044;8.716;2024-01-07T10:28:22;4.37;;;2.50;;
25609;SDS011;13479;49.044;8.716;2024-01-07T10:30:48;5.33;;;2.83;;
25609;SDS011;13479;49.044;8.716;2024-01-07T10:33:16;6.60;;;3.97;;
25609;SDS011;13479;49.044;8.716;2024-01-07T10:35:42;4.50;;;2.60;;
25609;SDS011;13479;49.044;8.716;2024-01-07T10:38:18;5.93;;;3.20;;
25609;SDS011;13479;49.044;8.716;2024-01-07T10:40:44;4.30;;;2.03;;
25609;SDS011;13479;49.044;8.716;2024-01-07T10:43:12;3.97;;;2.50;;
25609;SDS011;13479;49.044;8.716;2024-01-07T10:45:40;6.17;;;3.43;;
25609;SDS011;13479;49.044;8.716;2024-01-07T10:48:05;7.47;;;4.27;;
25609;SDS011;13479;49.044;8.716;2024-01-07T10:50:32;4.53;;;2.80;;
25609;SDS011;13479;49.044;8.716;2024-01-07T10:53:03;4.73;;;2.43;;
25609;SDS011;13479;49.044;8.716;2024-01-07T10:55:33;7.37;;;3.20;;
25609;SDS011;13479;49.044;8.716;2024-01-07T10:58:02;5.03;;;2.83;;
25609;SDS011;13479;49.044;8.716;2024-01-07T11:00:28;5.33;;;3.10;;
25609;SDS011;13479;49.044;8.716;2024-01-07T11:03:13;5.03;;;2.57;;
25609;SDS011;13479;49.044;8.716;2024-01-07T11:05:47;5.50;;;2.97;;
25609;SDS011;13479;49.044;8.716;2024-01-07T11:11:06;6.40;;;3.50;;
25609;SDS011;13479;49.044;8.716;2024-01-07T11:13:38;4.80;;;2.97;;
25609;SDS011;13479;49.044;8.716;2024-01-07T11:16:04;8.23;;;3.50;;
25609;SDS011;13479;49.044;8.716;2024-01-07T11:18:39;6.87;;;4.23;;
25609;SDS011;13479;49.044;8.716;2024-01-07T11:21:10;5.23;;;3.33;;
25609;SDS011;13479;49.044;8.716;2024-01-07T11:23:36;5.90;;;2.90;;
25609;SDS011;13479;49.044;8.716;2024-01-07T11:26:07;3.57;;;2.50;;
25609;SDS011;13479;49.044;8.716;2024-01-07T11:28:53;4.13;;;2.30;;
25609;SDS011;13479;49.044;8.716;2024-01-07T11:31:21;4.27;;;2.60;;
25609;SDS011;13479;49.044;8.716;2024-01-07T11:34:07;4.13;;;2.50;;
25609;SDS011;13479;49.044;8.716;2024-01-07T11:36:36;3.63;;;2.27;;
25609;SDS011;13479;49.044;8.716;2024-01-07T11:39:02;3.47;;;2.03;;
25609;SDS011;13479;49.044;8.716;2024-01-07T11:41:28;5.00;;;2.97;;
25609;SDS011;13479;49.044;8.716;2024-01-07T11:43:58;3.03;;;2.13;;
25609;SDS011;13479;49.044;8.716;2024-01-07T11:46:25;4.57;;;2.67;;
25609;SDS011;13479;49.044;8.716;2024-01-07T11:48:54;3.87;;;2.57;;
25609;SDS011;13479;49.044;8.716;2024-01-07T11:51:27;4.17;;;2.13;;
25609;SDS011;13479;49.044;8.716;2024-01-07T11:53:55;4.00;;;2.43;;
25609;SDS011;13479;49.044;8.716;2024-01-07T11:56:22;5.47;;;3.00;;
25609;SDS011;13479;49.044;8.716;2024-01-07T11:58:47;7.37;;;2.90;;
25609;SDS011;13479;49.044;8.716;2024-01-07T12:01:14;5.33;;;2.90;;
25609;SDS011;13479;49.044;8.716;2024-01-07T12:03:40;3.53;;;2.37;;
25609;SDS011;13479;49.044;8.716;2024-01-07T12:06:08;5.73;;;3.53;;
25609;SDS011;13479;49.044;8.716;2024-01-07T12:08:38;3.37;;;2.23;;
25609;SDS011;13479;49.044;8.716;2024-01-07T12:11:03;5.27;;;3.50;;
25609;SDS011;13479;49.044;8.716;2024-01-07T12:13:30;7.20;;;3.80;;
25609;SDS011;13479;49.044;8.716;2024-01-07T12:15:56;7.47;;;3.97;;
25609;SDS011;13479;49.044;8.716;2024-01-07T12:18:22;4.90;;;3.10;;
25609;SDS011;13479;49.044;8.716;2024-01-07T12:20:56;4.57;;;2.13;;
25609;SDS011;13479;49.044;8.716;2024-01-07T12:23:22;6.33;;;3.47;;
25609;SDS011;13479;49.044;8.716;2024-01-07T12:25:48;5.00;;;2.30;;
25609;SDS011;13479;49.044;8.716;2024-01-07T12:28:14;6.57;;;2.70;;
25609;SDS011;13479;49.044;8.716;2024-01-07T12:30:39;8.93;;;4.37;;
25609;SDS011;13479;49.044;8.716;2024-01-07T12:33:04;7.50;;;4.07;;
25609;SDS011;13479;49.044;8.716;2024-01-07T12:35:30;6.90;;;3.70;;
25609;SDS011;13479;49.044;8.716;2024-01-07T12:37:56;6.43;;;3.63;;
25609;SDS011;13479;49.044;8.716;2024-01-07T12:40:21;6.40;;;4.10;;
25609;SDS011;13479;49.044;8.716;2024-01-07T12:42:49;6.93;;;3.83;;
25609;SDS011;13479;49.044;8.716;2024-01-07T12:45:14;7.37;;;4.33;;
25609;SDS011;13479;49.044;8.716;2024-01-07T12:47:40;6.10;;;3.47;;
25609;SDS011;13479;49.044;8.716;2024-01-07T12:50:07;6.93;;;4.23;;
25609;SDS011;13479;49.044;8.716;2024-01-07T12:52:35;8.73;;;4.60;;
25609;SDS011;13479;49.044;8.716;2024-01-07T12:55:01;6.93;;;4.17;;
25609;SDS011;13479;49.044;8.716;2024-01-07T12:57:26;7.90;;;4.50;;
25609;SDS011;13479;49.044;8.716;2024-01-07T12:59:52;6.70;;;3.73;;
25609;SDS011;13479;49.044;8.716;2024-01-07T13:02:17;6.37;;;4.00;;
25609;SDS011;13479;49.044;8.716;2024-01-07T13:04:42;5.70;;;3.40;;
25609;SDS011;13479;49.044;8.716;2024-01-07T13:07:07;8.57;;;4.93;;
25609;SDS011;13479;49.044;8.716;2024-01-07T13:09:33;8.13;;;4.60;;
25609;SDS011;13479;49.044;8.716;2024-01-07T13:11:58;7.27;;;3.00;;
25609;SDS011;13479;49.044;8.716;2024-01-07T13:14:24;6.17;;;3.80;;
25609;SDS011;13479;49.044;8.716;2024-01-07T13:16:49;7.50;;;3.47;;
25609;SDS011;13479;49.044;8.716;2024-01-07T13:19:14;8.50;;;4.53;;
25609;SDS011;13479;49.044;8.716;2024-01-07T13:21:39;4.40;;;2.67;;
25609;SDS011;13479;49.044;8.716;2024-01-07T13:24:05;4.97;;;2.90;;
25609;SDS011;13479;49.044;8.716;2024-01-07T13:26:30;9.40;;;4.67;;
25609;SDS011;13479;49.044;8.716;2024-01-07T13:28:55;7.67;;;4.23;;
25609;SDS011;13479;49.044;8.716;2024-01-07T13:31:21;8.70;;;4.57;;
25609;SDS011;13479;49.044;8.716;2024-01-07T13:33:46;9.03;;;4.53;;
25609;SDS011;13479;49.044;8.716;2024-01-07T13:36:11;8.17;;;4.70;;
25609;SDS011;13479;49.044;8.716;2024-01-07T13:38:38;8.30;;;4.27;;
25609;SDS011;13479;49.044;8.716;2024-01-07T13:41:03;9.27;;;5.43;;
25609;SDS011;13479;49.044;8.716;2024-01-07T13:43:29;4.80;;;2.33;;
25609;SDS011;13479;49.044;8.716;2024-01-07T13:45:54;9.10;;;5.13;;
25609;SDS011;13479;49.044;8.716;2024-01-07T13:48:20;8.90;;;4.70;;
25609;SDS011;13479;49.044;8.716;2024-01-07T13:50:45;7.73;;;4.50;;
25609;SDS011;13479;49.044;8.716;2024-01-07T13:53:12;8.20;;;4.97;;
25609;SDS011;13479;49.044;8.716;2024-01-07T13:55:37;10.67;;;5.43;;
25609;SDS011;13479;49.044;8.716;2024-01-07T13:58:03;10.20;;;5.47;;
25609;SDS011;13479;49.044;8.716;2024-01-07T14:00:29;9.03;;;4.50;;
25609;SDS011;13479;49.044;8.716;2024-01-07T14:02:54;9.87;;;4.53;;
25609;SDS011;13479;49.044;8.716;2024-01-07T14:05:20;8.07;;;4.50;;
25609;SDS011;13479;49.044;8.716;2024-01-07T14:07:45;8.50;;;4.37;;
25609;SDS011;13479;49.044;8.716;2024-01-07T14:10:10;7.90;;;4.83;;
25609;SDS011;13479;49.044;8.716;2024-01-07T14:12:35;9.63;;;4.93;;
25609;SDS011;13479;49.044;8.716;2024-01-07T14:15:01;8.47;;;5.03;;
25609;SDS011;13479;49.044;8.716;2024-01-07T14:17:26;8.70;;;4.10;;
25609;SDS011;13479;49.044;8.716;2024-01-07T14:19:52;6.57;;;2.33;;
25609;SDS011;13479;49.044;8.716;2024-01-07T14:22:18;6.30;;;3.03;;
25609;SDS011;13479;49.044;8.716;2024-01-07T14:24:44;6.37;;;3.43;;
25609;SDS011;13479;49.044;8.716;2024-01-07T14:27:10;6.50;;;3.57;;
25609;SDS011;13479;49.044;8.716;2024-01-07T14:29:36;6.57;;;3.47;;
25609;SDS011;13479;49.044;8.716;2024-01-07T14:32:02;8.60;;;3.87;;
25609;SDS011;13479;49.044;8.716;2024-01-07T14:34:28;8.73;;;4.33;;